Time;durP1;ratioP1;P1;durP2;ratioP2;P2;SDS_P1;SDS_P2;PMS_P1;PMS_P2;Temp;Humidity;BMP_temperature;BMP_pressure;BME280_temperature;BME280_humidity;BME280_pressure;Samples;Min_cycle;Max_cycle;Signal;HPM_P1;HPM_P2
2022/10/19 00:02:24;;;;;;;5.13;3.10;;;7.90;99.90;;;;;;5074452;28;20624;-84
2022/10/19 00:04:51;;;;;;;4.30;2.70;;;7.80;99.90;;;;;;5075240;28;20216;-81
2022/10/19 00:07:18;;;;;;;3.37;3.00;;;7.80;99.90;;;;;;5074231;28;20224;-77
2022/10/19 00:09:45;;;;;;;5.70;3.43;;;7.80;99.90;;;;;;5073403;28;20209;-79
2022/10/19 00:12:12;;;;;;;4.33;3.40;;;7.80;99.90;;;;;;5080180;28;20204;-79
2022/10/19 00:14:40;;;;;;;3.37;2.97;;;7.70;99.90;;;;;;5093790;28;20217;-83
2022/10/19 00:17:07;;;;;;;3.13;2.70;;;7.70;99.90;;;;;;5095348;28;20768;-89
2022/10/19 00:19:34;;;;;;;3.40;2.80;;;7.70;99.90;;;;;;5094868;28;20212;-89
2022/10/19 00:22:01;;;;;;;5.47;3.67;;;7.70;99.90;;;;;;5095568;28;20203;-85
2022/10/19 00:24:28;;;;;;;8.40;3.67;;;7.70;99.90;;;;;;5096057;28;20201;-88
2022/10/19 00:26:54;;;;;;;6.20;3.43;;;7.70;99.90;;;;;;5095029;28;20197;-80
2022/10/19 00:29:22;;;;;;;6.00;3.20;;;7.60;99.90;;;;;;5095671;28;20196;-85
2022/10/19 00:31:50;;;;;;;3.13;2.80;;;7.60;99.90;;;;;;5095623;28;20607;-89
2022/10/19 00:34:17;;;;;;;5.07;3.50;;;7.60;99.90;;;;;;5095571;28;20210;-89
2022/10/19 00:36:45;;;;;;;5.70;3.10;;;7.60;99.90;;;;;;5095143;28;20212;-89
2022/10/19 00:39:14;;;;;;;5.47;3.07;;;7.60;99.90;;;;;;5077334;28;20244;-89
2022/10/19 00:41:42;;;;;;;4.97;3.13;;;7.60;99.90;;;;;;5075159;28;20203;-87
2022/10/19 00:44:42;;;;;;;4.77;2.97;;;7.60;99.90;;;;;;5079793;28;20205;-87
2022/10/19 00:47:10;;;;;;;4.47;2.73;;;7.60;99.90;;;;;;5074023;28;20207;-84
2022/10/19 00:49:42;;;;;;;3.70;3.00;;;7.60;99.90;;;;;;5074275;28;20212;-88
2022/10/19 00:52:14;;;;;;;5.07;3.03;;;7.60;99.90;;;;;;5075016;28;20204;-81
2022/10/19 00:54:44;;;;;;;3.97;3.50;;;7.60;99.90;;;;;;5074547;28;20254;-84
2022/10/19 00:57:11;;;;;;;5.37;3.10;;;7.60;99.90;;;;;;5074139;28;20208;-85
2022/10/19 00:59:39;;;;;;;5.70;3.03;;;7.60;99.90;;;;;;5074622;28;20201;-84
2022/10/19 01:02:06;;;;;;;5.20;3.10;;;7.60;99.90;;;;;;5073876;28;20281;-89
2022/10/19 01:04:39;;;;;;;4.33;2.90;;;7.60;99.90;;;;;;5074301;28;20197;-80
2022/10/19 01:07:07;;;;;;;3.90;2.93;;;7.50;99.90;;;;;;5074302;28;20212;-78
2022/10/19 01:09:34;;;;;;;4.47;2.63;;;7.50;99.90;;;;;;5073733;28;20203;-78
2022/10/19 01:12:08;;;;;;;4.53;3.07;;;7.50;99.90;;;;;;5073921;28;20230;-77
2022/10/19 01:14:55;;;;;;;2.93;2.63;;;7.50;99.90;;;;;;5073870;28;20789;-77
2022/10/19 01:17:31;;;;;;;5.33;3.53;;;7.50;99.90;;;;;;5073422;28;20197;-77
2022/10/19 01:20:28;;;;;;;5.63;2.70;;;7.50;99.90;;;;;;5073974;28;20227;-78
2022/10/19 01:23:09;;;;;;;6.57;2.97;;;7.50;99.90;;;;;;5073269;28;20703;-80
2022/10/19 01:25:51;;;;;;;5.33;3.07;;;7.50;99.90;;;;;;5073653;28;20288;-79
2022/10/19 01:28:32;;;;;;;3.70;2.67;;;7.50;99.90;;;;;;5074345;28;20200;-81
2022/10/19 01:31:04;;;;;;;6.93;3.37;;;7.60;99.90;;;;;;5073070;28;20200;-79
2022/10/19 01:33:41;;;;;;;5.87;3.07;;;7.60;99.90;;;;;;5073916;28;20258;-83
2022/10/19 01:36:18;;;;;;;2.97;2.63;;;7.60;99.90;;;;;;5074356;28;20205;-81
2022/10/19 01:38:54;;;;;;;3.97;3.00;;;7.60;99.90;;;;;;5073771;28;20197;-88
2022/10/19 01:41:28;;;;;;;3.83;2.97;;;7.60;99.90;;;;;;5074414;28;20220;-82
2022/10/19 01:44:00;;;;;;;3.20;2.90;;;7.60;99.90;;;;;;5074197;28;20202;-87
2022/10/19 01:46:33;;;;;;;4.03;3.10;;;7.60;99.90;;;;;;5074293;28;20189;-83
2022/10/19 01:49:07;;;;;;;6.60;3.20;;;7.60;99.90;;;;;;5073739;28;20221;-78
2022/10/19 01:51:37;;;;;;;3.67;3.10;;;7.60;99.90;;;;;;5073158;28;20520;-78
2022/10/19 01:54:09;;;;;;;4.10;3.30;;;7.60;99.90;;;;;;5094311;28;20207;-83
2022/10/19 01:56:37;;;;;;;4.23;3.37;;;7.60;99.90;;;;;;5094486;28;20233;-88
2022/10/19 01:59:07;;;;;;;3.70;3.00;;;7.50;99.90;;;;;;5094877;28;20185;-88
2022/10/19 02:01:39;;;;;;;3.37;3.07;;;7.50;99.90;;;;;;5094844;28;20193;-84
2022/10/19 02:04:07;;;;;;;4.40;3.20;;;7.50;99.90;;;;;;5095680;28;20481;-88
2022/10/19 02:06:34;;;;;;;4.77;2.70;;;7.40;99.90;;;;;;5094609;28;20212;-88
2022/10/19 02:09:00;;;;;;;3.80;3.30;;;7.40;99.90;;;;;;5099085;28;20302;-89
2022/10/19 02:11:29;;;;;;;3.30;3.00;;;7.40;99.90;;;;;;5099242;28;20589;-88
2022/10/19 02:14:04;;;;;;;3.83;3.10;;;7.40;99.90;;;;;;5095435;28;20197;-88
2022/10/19 02:16:38;;;;;;;3.03;2.63;;;7.40;99.90;;;;;;5078067;28;20285;-86
2022/10/19 02:19:08;;;;;;;4.10;2.60;;;7.40;99.90;;;;;;5095401;28;20205;-88
2022/10/19 02:21:36;;;;;;;3.63;2.50;;;7.40;99.90;;;;;;5098869;28;20185;-87
2022/10/19 02:24:02;;;;;;;3.23;2.47;;;7.40;99.90;;;;;;5080107;28;20201;-88
2022/10/19 02:26:30;;;;;;;2.93;2.40;;;7.30;99.90;;;;;;5077582;28;20193;-87
2022/10/19 02:28:57;;;;;;;3.10;2.80;;;7.30;99.90;;;;;;5077792;28;20190;-88
2022/10/19 02:31:26;;;;;;;3.17;2.80;;;7.30;99.90;;;;;;5084547;28;20227;-87
2022/10/19 02:33:54;;;;;;;3.77;2.60;;;7.20;99.90;;;;;;5098179;28;20199;-87
2022/10/19 02:36:22;;;;;;;4.67;3.10;;;7.20;99.90;;;;;;5091616;28;20316;-87
2022/10/19 02:38:49;;;;;;;4.80;2.83;;;7.20;99.90;;;;;;5077964;28;20351;-87
2022/10/19 02:41:18;;;;;;;3.63;2.60;;;7.20;99.90;;;;;;5077484;28;20284;-86
2022/10/19 02:43:50;;;;;;;4.23;2.67;;;7.20;99.90;;;;;;5077229;28;20201;-84
2022/10/19 02:46:22;;;;;;;4.53;2.83;;;7.20;99.90;;;;;;5077292;28;20216;-87
2022/10/19 02:48:51;;;;;;;3.27;2.40;;;7.20;99.90;;;;;;5077274;28;20301;-81
2022/10/19 02:51:30;;;;;;;3.63;2.50;;;7.10;99.90;;;;;;5077208;28;20205;-86
2022/10/19 02:53:57;;;;;;;3.40;2.60;;;7.10;99.90;;;;;;5077199;28;20212;-87
2022/10/19 02:56:23;;;;;;;2.70;2.47;;;7.10;99.90;;;;;;5077094;28;20312;-82
2022/10/19 02:58:50;;;;;;;2.77;2.40;;;7.10;99.90;;;;;;5077294;28;20201;-88
2022/10/19 03:01:17;;;;;;;5.53;3.00;;;7.00;99.90;;;;;;5076732;28;20201;-87
2022/10/19 03:03:44;;;;;;;3.80;2.43;;;7.00;99.90;;;;;;5076773;28;20197;-82
2022/10/19 03:06:11;;;;;;;5.27;3.17;;;7.00;99.90;;;;;;5075116;28;20215;-82
2022/10/19 03:08:39;;;;;;;3.00;2.70;;;7.00;99.90;;;;;;5075484;28;20197;-82
2022/10/19 03:11:06;;;;;;;3.23;2.83;;;6.90;99.90;;;;;;5075103;28;20208;-79
2022/10/19 03:13:33;;;;;;;3.47;2.50;;;6.90;99.90;;;;;;5074590;28;20644;-79
2022/10/19 03:16:06;;;;;;;3.00;2.60;;;6.90;99.90;;;;;;5074481;28;20279;-84
2022/10/19 03:18:33;;;;;;;3.80;2.83;;;6.80;99.90;;;;;;5076218;28;20193;-86
2022/10/19 03:21:05;;;;;;;4.17;2.67;;;6.80;99.90;;;;;;5077466;28;20205;-87
2022/10/19 03:23:32;;;;;;;3.77;2.47;;;6.70;99.90;;;;;;5076594;28;20197;-86
2022/10/19 03:26:01;;;;;;;3.40;2.60;;;6.70;99.90;;;;;;5076667;28;20194;-88
2022/10/19 03:28:28;;;;;;;2.33;2.13;;;6.70;99.90;;;;;;5088140;28;20200;-80
2022/10/19 03:30:55;;;;;;;2.87;2.50;;;6.70;99.90;;;;;;5096195;28;20189;-88
2022/10/19 03:33:22;;;;;;;2.83;2.53;;;6.60;99.90;;;;;;5096174;28;20200;-83
2022/10/19 03:35:49;;;;;;;3.70;2.50;;;6.70;99.90;;;;;;5091454;28;20228;-81
2022/10/19 03:38:16;;;;;;;3.47;2.67;;;6.70;99.90;;;;;;5075235;28;20204;-88
2022/10/19 03:40:43;;;;;;;4.47;2.53;;;6.70;99.90;;;;;;5076117;28;20193;-85
2022/10/19 03:43:11;;;;;;;3.83;2.43;;;6.70;99.90;;;;;;5075116;28;20197;-80
2022/10/19 03:45:38;;;;;;;3.67;2.50;;;6.70;99.90;;;;;;5074671;28;20611;-87
2022/10/19 03:48:05;;;;;;;2.60;2.40;;;6.70;99.90;;;;;;5075048;28;20280;-79
2022/10/19 03:50:32;;;;;;;3.47;2.73;;;6.70;99.90;;;;;;5073857;28;20861;-80
2022/10/19 03:52:59;;;;;;;3.00;2.60;;;6.70;99.90;;;;;;5074891;28;20771;-86
2022/10/19 03:55:26;;;;;;;4.10;2.60;;;6.70;99.90;;;;;;5074467;28;20222;-87
2022/10/19 03:57:52;;;;;;;2.93;2.63;;;6.70;99.90;;;;;;5075126;28;20647;-87
2022/10/19 04:00:21;;;;;;;3.27;2.47;;;6.70;99.90;;;;;;5075929;28;20205;-84
2022/10/19 04:02:47;;;;;;;2.40;2.13;;;6.60;99.90;;;;;;5075677;28;20283;-85
2022/10/19 04:05:14;;;;;;;3.83;2.57;;;6.60;99.90;;;;;;5074804;28;20227;-88
2022/10/19 04:07:41;;;;;;;3.03;2.70;;;6.60;99.90;;;;;;5076895;28;20204;-86
2022/10/19 04:10:08;;;;;;;3.20;2.30;;;6.60;99.90;;;;;;5075987;28;20201;-88
2022/10/19 04:12:35;;;;;;;4.17;2.37;;;6.60;99.90;;;;;;5075295;28;20205;-88
2022/10/19 04:15:02;;;;;;;2.30;2.10;;;6.50;99.90;;;;;;5076406;28;20193;-88
2022/10/19 04:17:30;;;;;;;3.33;2.23;;;6.50;99.90;;;;;;5096355;28;20303;-88
2022/10/19 04:19:57;;;;;;;3.03;2.10;;;6.50;99.90;;;;;;5094245;28;20197;-86
2022/10/19 04:22:24;;;;;;;3.27;2.57;;;6.50;99.90;;;;;;5075991;28;20197;-88
2022/10/19 04:24:51;;;;;;;3.73;2.33;;;6.50;99.90;;;;;;5075545;28;20197;-88
2022/10/19 04:27:18;;;;;;;2.80;2.33;;;6.50;99.90;;;;;;5075714;28;20223;-85
2022/10/19 04:29:45;;;;;;;2.30;2.10;;;6.40;99.90;;;;;;5075352;28;20194;-87
2022/10/19 04:32:12;;;;;;;3.90;2.27;;;6.40;99.90;;;;;;5078074;28;20232;-87
2022/10/19 04:34:40;;;;;;;2.60;2.23;;;6.40;99.90;;;;;;5095552;28;20201;-88
2022/10/19 04:37:07;;;;;;;5.17;2.60;;;6.40;99.90;;;;;;5095387;28;20217;-84
2022/10/19 04:39:38;;;;;;;2.57;2.37;;;6.40;99.90;;;;;;5095309;28;20235;-86
2022/10/19 04:42:05;;;;;;;3.37;2.10;;;6.40;99.90;;;;;;5095126;28;20247;-83
2022/10/19 04:44:31;;;;;;;6.93;2.73;;;6.30;99.90;;;;;;5095076;28;20189;-86
2022/10/19 04:46:58;;;;;;;2.10;1.90;;;6.30;99.90;;;;;;5092753;28;20288;-82
2022/10/19 04:49:25;;;;;;;7.07;3.53;;;6.30;99.90;;;;;;5094951;28;20200;-87
2022/10/19 04:51:53;;;;;;;2.60;2.40;;;6.30;99.90;;;;;;5095559;28;20203;-85
2022/10/19 04:54:20;;;;;;;3.50;2.50;;;6.30;99.90;;;;;;5085393;28;20197;-87
2022/10/19 04:56:47;;;;;;;4.97;2.60;;;6.30;99.90;;;;;;5075311;28;20316;-87
2022/10/19 04:59:14;;;;;;;5.63;3.17;;;6.40;99.90;;;;;;5075119;28;20209;-88
2022/10/19 05:01:41;;;;;;;6.73;2.57;;;6.40;99.90;;;;;;5075092;28;20297;-87
2022/10/19 05:04:10;;;;;;;2.83;2.43;;;6.40;99.90;;;;;;5075281;28;20201;-89
2022/10/19 05:06:36;;;;;;;3.00;2.50;;;6.40;99.90;;;;;;5074740;28;20196;-88
2022/10/19 05:09:05;;;;;;;4.77;2.60;;;6.40;99.90;;;;;;5082388;28;20707;-87
2022/10/19 05:11:31;;;;;;;4.57;3.00;;;6.50;99.90;;;;;;5095047;28;20196;-87
2022/10/19 05:13:58;;;;;;;3.30;2.33;;;6.50;99.90;;;;;;5094788;28;20208;-87
2022/10/19 05:16:25;;;;;;;3.70;2.60;;;6.50;99.90;;;;;;5094481;28;20236;-87
2022/10/19 05:18:57;;;;;;;3.60;2.40;;;6.50;99.90;;;;;;5094904;28;20810;-87
2022/10/19 05:21:26;;;;;;;3.20;2.33;;;6.50;99.90;;;;;;5090715;28;20299;-87
2022/10/19 05:23:54;;;;;;;4.70;2.57;;;6.50;99.90;;;;;;5074390;28;20224;-83
2022/10/19 05:26:25;;;;;;;2.50;2.30;;;6.50;99.90;;;;;;5074512;28;20200;-84
2022/10/19 05:28:55;;;;;;;4.17;2.37;;;6.50;99.90;;;;;;5074495;28;20598;-87
2022/10/19 05:31:23;;;;;;;2.20;2.00;;;6.50;99.90;;;;;;5075356;28;20216;-85
2022/10/19 05:33:50;;;;;;;3.53;2.50;;;6.50;99.90;;;;;;5074303;28;20611;-84
2022/10/19 05:36:19;;;;;;;3.07;2.33;;;6.50;99.90;;;;;;5074636;28;20287;-88
2022/10/19 05:38:48;;;;;;;5.27;2.60;;;6.50;99.90;;;;;;5075261;28;20208;-87
2022/10/19 05:41:15;;;;;;;3.20;2.40;;;6.50;99.90;;;;;;5074213;28;20194;-87
2022/10/19 05:43:44;;;;;;;2.70;2.50;;;6.50;99.90;;;;;;5073988;28;20289;-85
2022/10/19 05:46:14;;;;;;;3.20;2.30;;;6.50;99.90;;;;;;5074346;28;20515;-87
2022/10/19 05:48:41;;;;;;;2.97;2.30;;;6.40;99.90;;;;;;5074642;28;20197;-88
2022/10/19 05:51:11;;;;;;;3.13;2.70;;;6.40;99.90;;;;;;5074233;28;20185;-86
2022/10/19 05:53:38;;;;;;;5.43;2.90;;;6.50;99.90;;;;;;5089593;28;20283;-82
2022/10/19 05:56:06;;;;;;;4.50;3.10;;;6.50;99.90;;;;;;5094568;28;20240;-87
2022/10/19 05:58:33;;;;;;;3.47;3.07;;;6.50;99.90;;;;;;5077994;28;20207;-87
2022/10/19 06:01:02;;;;;;;4.30;3.90;;;6.50;99.90;;;;;;5074642;28;20268;-87
2022/10/19 06:03:30;;;;;;;5.90;4.10;;;6.50;99.90;;;;;;5073945;28;20197;-84
2022/10/19 06:05:57;;;;;;;4.73;3.37;;;6.50;99.90;;;;;;5073563;28;20201;-86
2022/10/19 06:08:25;;;;;;;3.33;3.00;;;6.50;99.90;;;;;;5074184;28;20284;-87
2022/10/19 06:10:51;;;;;;;6.83;3.37;;;6.50;99.90;;;;;;5074631;28;20201;-86
2022/10/19 06:13:21;;;;;;;3.97;2.63;;;6.50;99.90;;;;;;5085257;28;20227;-87
2022/10/19 06:15:51;;;;;;;2.30;2.10;;;6.50;99.90;;;;;;5093967;28;20578;-87
2022/10/19 06:18:24;;;;;;;3.13;2.33;;;6.50;99.90;;;;;;5080198;28;20761;-83
2022/10/19 06:20:51;;;;;;;6.33;2.37;;;6.50;99.90;;;;;;5073925;28;20202;-84
2022/10/19 06:23:18;;;;;;;3.13;2.73;;;6.60;99.90;;;;;;5072808;28;20505;-84
2022/10/19 06:25:45;;;;;;;5.77;2.80;;;6.60;99.90;;;;;;5072507;28;20203;-88
2022/10/19 06:28:12;;;;;;;3.13;2.80;;;6.60;99.90;;;;;;5073134;28;20578;-87
2022/10/19 06:30:39;;;;;;;2.63;2.43;;;6.60;99.90;;;;;;5073649;28;20229;-81
2022/10/19 06:33:06;;;;;;;3.27;2.60;;;6.70;99.90;;;;;;5071391;28;20208;-80
2022/10/19 06:35:35;;;;;;;3.50;2.73;;;6.70;99.90;;;;;;5071810;28;20503;-80
2022/10/19 06:38:02;;;;;;;4.13;2.67;;;6.70;99.90;;;;;;5071585;28;20636;-82
2022/10/19 06:40:29;;;;;;;2.97;2.70;;;6.80;99.90;;;;;;5071327;28;20498;-82
2022/10/19 06:42:56;;;;;;;5.73;3.17;;;6.80;99.90;;;;;;5072207;28;20280;-82
2022/10/19 06:45:22;;;;;;;4.93;2.70;;;6.80;99.90;;;;;;5071556;28;20194;-83
2022/10/19 06:47:50;;;;;;;3.53;2.80;;;6.90;99.90;;;;;;5084860;28;20200;-81
2022/10/19 06:50:17;;;;;;;6.83;3.03;;;6.90;99.90;;;;;;5081416;28;20543;-81
2022/10/19 06:52:45;;;;;;;6.00;3.60;;;7.00;99.90;;;;;;5071925;28;20224;-81
2022/10/19 06:55:12;;;;;;;5.73;3.90;;;7.00;99.90;;;;;;5073332;28;20602;-80
2022/10/19 06:57:39;;;;;;;4.17;3.33;;;7.00;99.90;;;;;;5075828;28;20209;-85
2022/10/19 07:00:07;;;;;;;6.13;3.63;;;7.10;99.90;;;;;;5075597;28;20288;-81
2022/10/19 07:02:34;;;;;;;4.20;3.50;;;7.20;99.90;;;;;;5080590;28;20193;-81
2022/10/19 07:05:01;;;;;;;8.40;5.33;;;7.30;99.90;;;;;;5096145;28;20205;-82
2022/10/19 07:07:28;;;;;;;6.70;4.00;;;7.40;99.90;;;;;;5095030;28;20208;-81
2022/10/19 07:09:56;;;;;;;5.60;3.17;;;7.50;99.90;;;;;;5096278;28;20215;-81
2022/10/19 07:12:23;;;;;;;6.60;3.00;;;7.60;99.90;;;;;;5089465;28;20204;-81
2022/10/19 07:14:50;;;;;;;4.07;2.60;;;7.80;99.90;;;;;;5088244;28;20206;-83
2022/10/19 07:17:16;;;;;;;6.70;2.97;;;7.90;99.90;;;;;;5090453;28;20225;-84
2022/10/19 07:19:43;;;;;;;5.40;2.70;;;8.00;99.90;;;;;;5086001;28;20196;-83
2022/10/19 07:22:10;;;;;;;5.20;3.17;;;8.10;99.90;;;;;;5086353;28;20207;-83
2022/10/19 07:24:37;;;;;;;4.43;2.70;;;8.20;99.90;;;;;;5094941;28;20488;-79
2022/10/19 07:27:05;;;;;;;5.90;3.03;;;8.30;99.90;;;;;;5091516;28;20232;-84
2022/10/19 07:29:32;;;;;;;4.80;2.63;;;8.30;99.90;;;;;;5089438;28;20236;-82
2022/10/19 07:31:59;;;;;;;5.37;2.97;;;8.40;99.90;;;;;;5093128;28;20207;-84
2022/10/19 07:34:26;;;;;;;4.80;2.17;;;8.50;99.90;;;;;;5090294;28;20277;-84
2022/10/19 07:36:53;;;;;;;5.00;2.13;;;8.50;99.90;;;;;;5096016;28;20185;-83
2022/10/19 07:39:21;;;;;;;4.93;2.57;;;8.60;99.90;;;;;;5094179;28;20228;-85
2022/10/19 07:41:48;;;;;;;4.57;2.57;;;8.70;99.90;;;;;;5095369;28;20208;-83
2022/10/19 07:44:16;;;;;;;4.53;2.60;;;8.70;99.90;;;;;;5095929;28;20197;-82
2022/10/19 07:46:43;;;;;;;8.10;3.10;;;8.90;99.90;;;;;;5078271;28;20510;-85
2022/10/19 07:49:15;;;;;;;9.10;3.83;;;9.00;99.90;;;;;;5073435;28;20201;-82
2022/10/19 07:51:42;;;;;;;8.97;3.00;;;9.00;99.90;;;;;;5076105;28;20289;-86
2022/10/19 07:54:09;;;;;;;7.70;2.77;;;9.10;99.90;;;;;;5076496;28;20201;-87
2022/10/19 07:56:37;;;;;;;9.77;2.40;;;9.20;99.90;;;;;;5079167;28;20216;-83
2022/10/19 07:59:04;;;;;;;9.70;2.73;;;9.30;99.90;;;;;;5079811;28;20935;-85
2022/10/19 08:01:35;;;;;;;9.07;2.80;;;9.40;99.90;;;;;;5075784;28;20206;-84
2022/10/19 08:04:02;;;;;;;8.43;2.87;;;9.50;99.90;;;;;;5075533;28;20228;-84
2022/10/19 08:06:30;;;;;;;10.90;3.07;;;9.60;99.90;;;;;;5075358;28;20201;-85
2022/10/19 08:08:57;;;;;;;9.10;2.73;;;9.60;99.90;;;;;;5075312;28;20560;-85
2022/10/19 08:11:27;;;;;;;10.30;2.40;;;9.60;99.90;;;;;;5075433;28;20220;-85
2022/10/19 08:13:57;;;;;;;7.97;2.40;;;9.60;99.90;;;;;;5076358;28;20220;-85
2022/10/19 08:16:27;;;;;;;6.10;2.17;;;9.70;99.90;;;;;;5075066;28;20233;-85
2022/10/19 08:18:58;;;;;;;6.63;2.00;;;9.80;99.90;;;;;;5074558;28;20311;-83
2022/10/19 08:21:25;;;;;;;7.80;2.47;;;9.80;99.90;;;;;;5075304;28;20211;-87
2022/10/19 08:23:51;;;;;;;10.30;2.37;;;9.80;99.90;;;;;;5083715;28;20197;-88
2022/10/19 08:26:20;;;;;;;9.80;2.00;;;9.90;99.90;;;;;;5095522;28;20192;-87
2022/10/19 08:28:47;;;;;;;5.60;2.20;;;10.00;99.90;;;;;;5095641;28;20307;-85
2022/10/19 08:31:16;;;;;;;8.30;2.00;;;10.00;99.90;;;;;;5095533;28;20203;-83
2022/10/19 08:33:43;;;;;;;9.00;1.80;;;10.10;99.90;;;;;;5094792;28;20189;-85
2022/10/19 08:36:13;;;;;;;4.87;1.70;;;10.20;99.90;;;;;;5095466;28;20203;-88
2022/10/19 08:38:42;;;;;;;12.03;2.53;;;10.20;99.90;;;;;;5094977;28;20227;-84
2022/10/19 08:41:20;;;;;;;10.17;2.40;;;10.30;99.90;;;;;;5095400;28;20289;-84
2022/10/19 08:43:59;;;;;;;6.47;1.90;;;10.40;99.90;;;;;;5087244;28;20616;-87
2022/10/19 08:46:38;;;;;;;8.60;2.20;;;10.40;99.90;;;;;;5074385;28;20611;-85
2022/10/19 08:49:05;;;;;;;7.57;2.17;;;10.50;99.90;;;;;;5074695;28;20186;-88
2022/10/19 08:51:39;;;;;;;11.37;2.20;;;10.60;99.90;;;;;;5074559;28;20208;-89
2022/10/19 08:54:13;;;;;;;9.13;1.83;;;10.60;99.90;;;;;;5074613;28;20576;-87
2022/10/19 08:56:48;;;;;;;8.87;1.77;;;10.70;99.90;;;;;;5074458;28;20221;-88
2022/10/19 08:59:25;;;;;;;11.00;2.20;;;10.80;99.90;;;;;;5074818;28;20208;-87
2022/10/19 09:01:56;;;;;;;7.33;1.97;;;10.80;99.90;;;;;;5080383;28;20197;-87
2022/10/19 09:04:28;;;;;;;13.03;2.27;;;10.90;99.90;;;;;;5094601;28;20223;-88
2022/10/19 09:07:21;;;;;;;7.63;2.00;;;11.00;99.90;;;;;;5094917;28;20199;-89
2022/10/19 09:09:52;;;;;;;12.47;3.37;;;11.10;99.90;;;;;;5087955;28;20197;-80
2022/10/19 09:12:31;;;;;;;10.83;2.00;;;11.10;99.90;;;;;;5076099;28;20651;-85
2022/10/19 09:15:03;;;;;;;6.27;1.80;;;11.20;99.90;;;;;;5073304;28;20193;-90
2022/10/19 09:17:32;;;;;;;8.93;1.70;;;11.30;99.90;;;;;;5073670;28;20256;-85
2022/10/19 09:20:10;;;;;;;7.67;1.50;;;11.40;99.90;;;;;;5070585;28;20208;-86
2022/10/19 09:22:39;;;;;;;3.70;1.20;;;11.50;99.90;;;;;;5071356;28;20193;-91
2022/10/19 09:25:13;;;;;;;6.13;1.70;;;11.60;99.90;;;;;;5074484;28;20221;-87
2022/10/19 09:27:44;;;;;;;8.80;1.43;;;11.60;99.90;;;;;;5074208;28;20201;-94
2022/10/19 09:30:18;;;;;;;10.73;1.33;;;11.70;99.90;;;;;;5074277;28;20562;-94
2022/10/19 09:32:45;;;;;;;7.97;1.57;;;11.80;99.90;;;;;;5079744;28;20195;-87
2022/10/19 09:35:24;;;;;;;7.87;1.60;;;11.90;99.90;;;;;;5092903;28;20204;-94
2022/10/19 09:37:53;;;;;;;6.80;1.67;;;12.00;99.90;;;;;;5093005;28;20216;-92
2022/10/19 09:40:23;;;;;;;8.10;1.53;;;12.10;99.90;;;;;;5095008;28;20526;-92
2022/10/19 09:42:55;;;;;;;11.27;2.00;;;12.10;99.90;;;;;;5093296;28;20204;-93
2022/10/19 09:45:33;;;;;;;5.97;1.50;;;12.20;99.90;;;;;;5094613;28;20299;-90
2022/10/19 09:48:02;;;;;;;5.90;1.50;;;12.30;99.90;;;;;;5094420;28;20201;-92
2022/10/19 09:50:31;;;;;;;6.90;1.40;;;12.30;99.90;;;;;;5090186;28;20205;-88
2022/10/19 09:53:02;;;;;;;4.87;1.50;;;12.40;99.90;;;;;;5074142;28;20216;-88
2022/10/19 09:55:37;;;;;;;5.10;1.40;;;12.60;99.90;;;;;;5082622;28;20225;-87
2022/10/19 09:58:15;;;;;;;8.30;1.33;;;12.60;99.90;;;;;;5094392;28;20687;-87
2022/10/19 10:00:44;;;;;;;5.97;1.30;;;12.70;99.90;;;;;;5094138;28;20496;-88
2022/10/19 10:03:27;;;;;;;5.23;1.30;;;12.80;99.90;;;;;;5090858;28;20201;-79
2022/10/19 10:05:57;;;;;;;10.77;1.87;;;13.00;99.90;;;;;;5093594;28;20288;-87
2022/10/19 10:08:27;;;;;;;5.47;1.63;;;13.10;99.90;;;;;;5093659;28;20192;-90
2022/10/19 10:11:03;;;;;;;7.00;1.23;;;13.20;99.90;;;;;;5093926;28;20204;-82
2022/10/19 10:13:30;;;;;;;6.30;1.67;;;13.30;99.90;;;;;;5089904;28;20189;-84
2022/10/19 10:16:00;;;;;;;8.83;1.23;;;13.30;99.90;;;;;;5090980;28;20232;-81
2022/10/19 10:18:28;;;;;;;4.27;1.00;;;13.30;99.90;;;;;;5085310;28;20222;-83
2022/10/19 10:21:04;;;;;;;2.37;1.20;;;13.40;99.90;;;;;;5093499;28;20498;-85
2022/10/19 10:23:35;;;;;;;5.50;1.20;;;13.40;99.90;;;;;;5089362;28;20219;-84
2022/10/19 10:26:03;;;;;;;6.00;1.40;;;13.50;99.90;;;;;;5083256;28;20236;-85
2022/10/19 10:28:31;;;;;;;5.67;1.23;;;13.60;99.90;;;;;;5094433;28;20206;-83
2022/10/19 10:31:03;;;;;;;5.93;1.77;;;13.60;99.90;;;;;;5092220;28;20228;-85
2022/10/19 10:33:32;;;;;;;5.67;1.20;;;13.70;99.90;;;;;;5076926;28;20624;-84
2022/10/19 10:36:04;;;;;;;5.17;1.40;;;13.80;99.90;;;;;;5076756;28;20544;-85
2022/10/19 10:38:35;;;;;;;3.10;1.13;;;13.90;99.90;;;;;;5077028;28;20220;-86
2022/10/19 10:41:06;;;;;;;6.93;1.27;;;14.00;99.90;;;;;;5077386;28;20296;-84
2022/10/19 10:43:35;;;;;;;4.73;1.20;;;14.00;99.90;;;;;;5077276;28;20288;-89
2022/10/19 10:46:06;;;;;;;5.83;1.27;;;14.10;99.90;;;;;;5083313;28;20287;-86
2022/10/19 10:48:39;;;;;;;5.73;1.30;;;14.20;99.90;;;;;;5096991;28;20748;-92
2022/10/19 10:51:20;;;;;;;9.07;1.77;;;14.20;99.90;;;;;;5097210;28;20286;-87
2022/10/19 10:53:48;;;;;;;5.00;1.00;;;14.30;99.90;;;;;;5096619;28;20204;-85
2022/10/19 10:56:26;;;;;;;6.53;1.17;;;14.30;99.90;;;;;;5084755;28;20257;-87
2022/10/19 10:58:59;;;;;;;9.17;1.33;;;14.40;99.90;;;;;;5076944;28;20539;-86
2022/10/19 11:01:31;;;;;;;4.10;1.33;;;14.50;99.90;;;;;;5077510;28;20196;-86
2022/10/19 11:04:02;;;;;;;6.67;1.73;;;14.50;99.90;;;;;;5077085;28;20410;-90
2022/10/19 11:06:31;;;;;;;6.60;1.40;;;14.70;99.90;;;;;;5076760;28;20403;-89
2022/10/19 11:09:10;;;;;;;5.77;1.03;;;14.70;99.90;;;;;;5075314;28;20662;-82
2022/10/19 11:11:39;;;;;;;5.47;1.33;;;14.80;98.70;;;;;;5076443;28;20212;-79
2022/10/19 11:14:32;;;;;;;6.73;1.27;;;14.80;99.90;;;;;;5074902;28;20761;-79
2022/10/19 11:17:04;;;;;;;6.53;1.33;;;14.80;99.90;;;;;;5075238;28;20632;-84
2022/10/19 11:19:35;;;;;;;5.50;1.20;;;14.90;99.90;;;;;;5076117;28;20237;-85
2022/10/19 11:22:14;;;;;;;4.57;1.40;;;15.00;99.90;;;;;;5075304;28;20193;-84
2022/10/19 11:24:55;;;;;;;4.47;1.40;;;15.10;99.90;;;;;;5075818;28;20200;-82
2022/10/19 11:27:37;;;;;;;5.03;1.10;;;15.20;69.60;;;;;;5075576;28;20188;-79
2022/10/19 11:30:13;;;;;;;5.23;1.40;;;15.30;41.70;;;;;;5076321;28;20292;-86
2022/10/19 11:32:49;;;;;;;3.73;1.20;;;15.30;51.40;;;;;;5075447;28;20284;-85
2022/10/19 11:35:36;;;;;;;7.57;1.33;;;15.40;60.40;;;;;;5074630;28;20195;-79
2022/10/19 11:38:18;;;;;;;4.07;1.23;;;15.40;39.20;;;;;;5073880;28;20758;-78
2022/10/19 11:40:55;;;;;;;3.88;1.25;;;15.50;67.90;;;;;;5073421;28;20208;-80
2022/10/19 11:43:29;;;;;;;7.33;1.17;;;15.60;95.50;;;;;;5074477;28;20200;-82
2022/10/19 11:46:04;;;;;;;6.72;1.30;;;15.70;43.10;;;;;;5075127;28;20534;-87
2022/10/19 11:48:50;;;;;;;3.63;1.20;;;15.80;48.10;;;;;;5074192;28;20636;-88
2022/10/19 11:51:21;;;;;;;3.67;1.15;;;15.80;24.20;;;;;;5082807;22;20530;-79
2022/10/19 11:53:56;;;;;;;7.70;1.73;;;15.80;48.10;;;;;;5053815;28;20273;-77
2022/10/19 11:56:29;;;;;;;10.98;1.60;;;15.90;30.60;;;;;;5053905;28;20218;-81
2022/10/19 11:59:01;;;;;;;6.47;1.25;;;15.80;6.70;;;;;;5054777;28;20206;-84
2022/10/19 12:01:46;;;;;;;3.58;1.00;;;15.80;1.00;;;;;;5054062;28;20284;-78
2022/10/19 12:04:53;;;;;;;5.88;1.20;;;15.80;21.50;;;;;;5053585;28;20213;-76
2022/10/19 12:07:52;;;;;;;5.00;1.90;;;15.80;13.60;;;;;;5030122;28;20652;-86
2022/10/19 12:10:26;;;;;;;2.87;1.20;;;15.70;15.30;;;;;;5053949;28;20418;-82
2022/10/19 12:12:58;;;;;;;7.37;1.57;;;15.60;13.20;;;;;;5054393;28;20197;-87
2022/10/19 12:15:30;;;;;;;5.73;1.70;;;15.60;5.70;;;;;;5054979;28;20201;-79
2022/10/19 12:18:04;;;;;;;6.73;1.23;;;15.60;19.30;;;;;;5053375;28;20205;-78
2022/10/19 12:20:38;;;;;;;6.55;1.30;;;15.70;40.10;;;;;;5053851;28;20296;-83
2022/10/19 12:23:20;;;;;;;7.57;1.60;;;15.70;56.50;;;;;;5053400;28;20202;-82
2022/10/19 12:25:48;;;;;;;7.13;1.60;;;15.60;47.30;;;;;;5053052;28;20202;-79
2022/10/19 12:28:22;;;;;;;5.00;2.07;;;15.60;20.10;;;;;;5053434;28;20202;-80
2022/10/19 12:30:49;;;;;;;8.15;1.55;;;15.60;1.00;;;;;;5066731;28;20204;-85
2022/10/19 12:33:22;;;;;;;7.13;1.85;;;15.70;1.00;;;;;;5071620;28;20228;-79
2022/10/19 12:36:04;;;;;;;4.00;1.50;;;15.80;1.00;;;;;;5053310;28;20284;-80
2022/10/19 12:38:41;;;;;;;4.07;1.30;;;15.80;1.00;;;;;;5052011;28;20957;-78
2022/10/19 12:41:16;;;;;;;10.15;2.15;;;15.80;1.00;;;;;;5053854;28;20197;-80
2022/10/19 12:44:01;;;;;;;11.10;2.30;;;15.80;1.00;;;;;;5053419;28;20705;-81
2022/10/19 12:46:35;;;;;;;7.05;1.98;;;15.80;1.00;;;;;;5071904;28;20296;-78
2022/10/19 12:49:37;;;;;;;5.55;1.75;;;15.70;1.00;;;;;;5073097;28;20275;-83
2022/10/19 12:52:07;;;;;;;6.13;1.95;;;15.60;1.00;;;;;;5051919;28;20244;-78
2022/10/19 12:54:37;;;;;;;7.45;1.95;;;15.50;1.00;;;;;;5052410;28;20201;-82
2022/10/19 12:57:21;;;;;;;5.25;1.50;;;15.50;1.00;;;;;;5054486;28;20653;-80
2022/10/19 12:59:59;;;;;;;9.20;2.53;;;15.50;1.00;;;;;;5054263;28;20556;-84
2022/10/19 13:02:29;;;;;;;6.77;1.77;;;15.40;1.00;;;;;;5053589;28;20206;-85
2022/10/19 13:04:56;;;;;;;5.17;1.70;;;15.30;1.00;;;;;;5053900;28;20292;-87
2022/10/19 13:07:26;;;;;;;5.80;2.08;;;15.30;1.00;;;;;;5053870;28;20214;-78
2022/10/19 13:10:01;;;;;;;5.50;1.80;;;15.20;3.10;;;;;;5052365;28;20190;-78
2022/10/19 13:12:42;;;;;;;7.47;1.77;;;15.10;1.00;;;;;;5052349;28;20206;-78